sensor_id;sensor_type;location;lat;lon;timestamp;P1;P2;P0
77354;PMS7003;66422;51.202;19.936;2023-02-13T00:10:38;56.00;35.50;24.50
77354;PMS7003;66422;51.202;19.936;2023-02-13T00:25:58;55.00;41.00;26.00
77354;PMS7003;66422;51.202;19.936;2023-02-13T00:41:19;47.00;26.50;11.00
77354;PMS7003;66422;51.202;19.936;2023-02-13T00:56:39;55.00;33.00;22.00
77354;PMS7003;66422;51.202;19.936;2023-02-13T01:11:59;62.00;38.00;22.00
77354;PMS7003;66422;51.202;19.936;2023-02-13T01:27:19;49.50;34.00;22.50
77354;PMS7003;66422;51.202;19.936;2023-02-13T01:42:39;43.00;32.00;19.00
77354;PMS7003;66422;51.202;19.936;2023-02-13T01:58:04;40.00;31.00;17.00
77354;PMS7003;66422;51.202;19.936;2023-02-13T02:13:28;36.00;28.00;18.00
77354;PMS7003;66422;51.202;19.936;2023-02-13T02:59:53;36.00;29.00;16.00
77354;PMS7003;66422;51.202;19.936;2023-02-13T03:15:34;42.50;27.00;16.00
77354;PMS7003;66422;51.202;19.936;2023-02-13T03:46:56;27.50;16.00;12.00
77354;PMS7003;66422;51.202;19.936;2023-02-13T04:02:19;27.50;19.00;14.00
77354;PMS7003;66422;51.202;19.936;2023-02-13T04:17:55;33.50;16.00;12.00
77354;PMS7003;66422;51.202;19.936;2023-02-13T04:33:21;27.33;21.00;15.00
77354;PMS7003;66422;51.202;19.936;2023-02-13T04:48:41;38.50;19.00;12.00
77354;PMS7003;66422;51.202;19.936;2023-02-13T05:04:01;36.00;25.00;15.00
77354;PMS7003;66422;51.202;19.936;2023-02-13T05:19:20;32.00;25.00;19.00
77354;PMS7003;66422;51.202;19.936;2023-02-13T05:34:40;20.00;19.00;12.00
77354;PMS7003;66422;51.202;19.936;2023-02-13T05:49:59;33.00;22.00;16.00
77354;PMS7003;66422;51.202;19.936;2023-02-13T06:05:20;32.00;28.00;19.00
77354;PMS7003;66422;51.202;19.936;2023-02-13T06:20:39;31.00;17.00;16.00
77354;PMS7003;66422;51.202;19.936;2023-02-13T06:35:59;31.50;19.00;12.00
77354;PMS7003;66422;51.202;19.936;2023-02-13T06:51:18;30.00;24.00;17.00
77354;PMS7003;66422;51.202;19.936;2023-02-13T07:06:38;35.50;23.00;15.50
77354;PMS7003;66422;51.202;19.936;2023-02-13T07:21:58;36.00;27.00;17.00
77354;PMS7003;66422;51.202;19.936;2023-02-13T07:37:18;29.50;19.50;10.00
77354;PMS7003;66422;51.202;19.936;2023-02-13T07:52:38;31.50;24.00;17.50
77354;PMS7003;66422;51.202;19.936;2023-02-13T08:07:58;40.50;27.00;16.00
77354;PMS7003;66422;51.202;19.936;2023-02-13T08:23:18;34.00;27.00;18.00
77354;PMS7003;66422;51.202;19.936;2023-02-13T08:38:37;31.00;19.00;11.00
77354;PMS7003;66422;51.202;19.936;2023-02-13T08:53:57;31.00;17.00;12.00
77354;PMS7003;66422;51.202;19.936;2023-02-13T09:09:16;26.50;17.50;10.00
77354;PMS7003;66422;51.202;19.936;2023-02-13T09:24:36;20.00;15.00;10.00
77354;PMS7003;66422;51.202;19.936;2023-02-13T09:39:56;22.00;12.00;10.00
77354;PMS7003;66422;51.202;19.936;2023-02-13T09:55:16;26.00;19.00;13.00
77354;PMS7003;66422;51.202;19.936;2023-02-13T10:26:20;32.50;17.00;10.00
77354;PMS7003;66422;51.202;19.936;2023-02-13T11:13:14;13.00;9.00;8.00
77354;PMS7003;66422;51.202;19.936;2023-02-13T11:28:36;13.50;10.50;7.00
77354;PMS7003;66422;51.202;19.936;2023-02-13T11:44:03;14.00;12.00;8.00
77354;PMS7003;66422;51.202;19.936;2023-02-13T11:59:25;13.00;10.00;8.00
77354;PMS7003;66422;51.202;19.936;2023-02-13T12:14:49;18.00;13.00;10.00
77354;PMS7003;66422;51.202;19.936;2023-02-13T13:00:59;19.00;14.00;9.00
77354;PMS7003;66422;51.202;19.936;2023-02-13T13:32:11;12.00;11.00;8.50
77354;PMS7003;66422;51.202;19.936;2023-02-13T14:18:21;19.00;12.67;8.67
77354;PMS7003;66422;51.202;19.936;2023-02-13T14:33:43;16.00;12.00;9.00
77354;PMS7003;66422;51.202;19.936;2023-02-13T14:49:12;28.67;22.67;15.00
77354;PMS7003;66422;51.202;19.936;2023-02-13T15:20:34;16.33;15.67;9.00
77354;PMS7003;66422;51.202;19.936;2023-02-13T15:36:02;19.00;9.00;5.00
77354;PMS7003;66422;51.202;19.936;2023-02-13T15:51:25;17.50;14.00;8.00
77354;PMS7003;66422;51.202;19.936;2023-02-13T16:06:47;23.50;17.50;12.00
77354;PMS7003;66422;51.202;19.936;2023-02-13T16:22:14;22.00;16.00;11.00
77354;PMS7003;66422;51.202;19.936;2023-02-13T16:37:46;29.50;18.50;13.50
77354;PMS7003;66422;51.202;19.936;2023-02-13T16:53:08;31.50;21.00;14.00
77354;PMS7003;66422;51.202;19.936;2023-02-13T17:08:31;41.50;26.00;15.50
77354;PMS7003;66422;51.202;19.936;2023-02-13T17:23:50;30.00;17.67;11.67
77354;PMS7003;66422;51.202;19.936;2023-02-13T17:39:10;37.00;22.00;15.00
77354;PMS7003;66422;51.202;19.936;2023-02-13T17:54:30;36.00;24.00;16.00
77354;PMS7003;66422;51.202;19.936;2023-02-13T18:09:51;25.00;15.00;11.50
77354;PMS7003;66422;51.202;19.936;2023-02-13T18:25:11;24.00;18.00;12.00
77354;PMS7003;66422;51.202;19.936;2023-02-13T18:40:32;26.00;16.00;11.00
77354;PMS7003;66422;51.202;19.936;2023-02-13T18:55:58;19.00;14.50;11.25
77354;PMS7003;66422;51.202;19.936;2023-02-13T19:11:23;22.00;19.00;13.00
77354;PMS7003;66422;51.202;19.936;2023-02-13T19:26:44;29.00;16.00;12.00
77354;PMS7003;66422;51.202;19.936;2023-02-13T19:42:05;35.00;23.00;15.00
77354;PMS7003;66422;51.202;19.936;2023-02-13T19:57:25;33.00;25.00;15.67
77354;PMS7003;66422;51.202;19.936;2023-02-13T20:12:46;36.33;27.67;19.00
77354;PMS7003;66422;51.202;19.936;2023-02-13T20:28:11;43.00;29.00;19.67
77354;PMS7003;66422;51.202;19.936;2023-02-13T20:43:32;44.00;26.00;16.00
77354;PMS7003;66422;51.202;19.936;2023-02-13T20:58:52;31.50;25.00;19.00
77354;PMS7003;66422;51.202;19.936;2023-02-13T21:14:14;37.00;25.00;18.00
77354;PMS7003;66422;51.202;19.936;2023-02-13T21:29:33;28.50;23.00;17.00
77354;PMS7003;66422;51.202;19.936;2023-02-13T21:44:54;38.00;22.00;12.00
77354;PMS7003;66422;51.202;19.936;2023-02-13T22:00:14;42.00;32.00;22.00
77354;PMS7003;66422;51.202;19.936;2023-02-13T22:15:34;38.50;30.00;19.00
77354;PMS7003;66422;51.202;19.936;2023-02-13T22:30:55;42.00;22.00;15.00
77354;PMS7003;66422;51.202;19.936;2023-02-13T22:46:16;43.67;26.67;14.33
77354;PMS7003;66422;51.202;19.936;2023-02-13T23:01:37;38.00;27.50;17.50
77354;PMS7003;66422;51.202;19.936;2023-02-13T23:16:58;30.00;19.00;11.50
77354;PMS7003;66422;51.202;19.936;2023-02-13T23:32:41;26.00;24.00;16.00
77354;PMS7003;66422;51.202;19.936;2023-02-13T23:48:01;31.33;23.00;15.33
